Weather at Heussler Hamburg Heliport

Public forecast

Using degrees Fahrenheit for public forecast. Weather courtesy of forecast.io.

Closest aviation weather report (METAR) to Heussler Hamburg Heliport

Closest report is Buffalo Niagara International Airport, 10.5 nm (19.4 km) NNE.

2024/05/24 18:54 (retrieved 40 minutes ago)

KBUF 241854Z 23015KT 10SM FEW060 FEW250 FEW300 24/07 A2989 RMK AO2 SLP119 T02390072

Closest aviation forecast (TAF) to Heussler Hamburg Heliport

Closest forecast is Buffalo Niagara International Airport, 10.5 nm (19.4 km) NNE.

2024/05/24 18:36 (retrieved 58 minutes ago)

TAF KBUF 241734Z 2418/2518 24013KT P6SM SKC FM242300 31004KT P6SM SKC FM250900 11007KT P6SM SCT250 FM251200 22013G21KT P6SM BKN200 FM251500 25015G23KT P6SM VCSH BKN060